sensor_id;sensor_type;location;lat;lon;timestamp;temperature;humidity
54558;DHT22;40452;50.080;20.040;2022-08-19T04:44:37;25.20;64.80
54558;DHT22;40452;50.080;20.040;2022-08-19T04:47:03;25.60;64.20
54558;DHT22;40452;50.080;20.040;2022-08-19T04:49:31;25.60;64.00
54558;DHT22;40452;50.080;20.040;2022-08-19T04:51:57;25.60;64.00
54558;DHT22;40452;50.080;20.040;2022-08-19T04:54:23;25.60;64.00
54558;DHT22;40452;50.080;20.040;2022-08-19T04:56:51;25.60;64.10
54558;DHT22;40452;50.080;20.040;2022-08-19T04:59:18;25.60;64.20
54558;DHT22;40452;50.080;20.040;2022-08-19T05:01:44;25.60;64.30
54558;DHT22;40452;50.080;20.040;2022-08-19T05:04:13;25.60;64.30
54558;DHT22;40452;50.080;20.040;2022-08-19T05:06:39;25.60;65.00
54558;DHT22;40452;50.080;20.040;2022-08-19T05:09:05;25.50;64.20
54558;DHT22;40452;50.080;20.040;2022-08-19T05:11:36;25.50;64.20
54558;DHT22;40452;50.080;20.040;2022-08-19T05:14:03;25.50;64.20
54558;DHT22;40452;50.080;20.040;2022-08-19T05:16:29;25.50;64.20
54558;DHT22;40452;50.080;20.040;2022-08-19T05:18:55;25.40;64.50
54558;DHT22;40452;50.080;20.040;2022-08-19T05:21:40;25.30;64.70
54558;DHT22;40452;50.080;20.040;2022-08-19T05:24:25;25.30;64.70
54558;DHT22;40452;50.080;20.040;2022-08-19T05:26:52;25.20;64.70
54558;DHT22;40452;50.080;20.040;2022-08-19T05:29:22;25.20;64.70
54558;DHT22;40452;50.080;20.040;2022-08-19T05:31:48;25.20;64.90
54558;DHT22;40452;50.080;20.040;2022-08-19T05:34:18;25.20;65.00
54558;DHT22;40452;50.080;20.040;2022-08-19T05:36:47;25.10;65.00
54558;DHT22;40452;50.080;20.040;2022-08-19T05:39:15;25.10;65.10
54558;DHT22;40452;50.080;20.040;2022-08-19T05:41:42;25.10;65.40
54558;DHT22;40452;50.080;20.040;2022-08-19T05:44:08;25.00;65.40
54558;DHT22;40452;50.080;20.040;2022-08-19T05:46:36;25.00;65.40
54558;DHT22;40452;50.080;20.040;2022-08-19T05:49:04;25.10;65.40
54558;DHT22;40452;50.080;20.040;2022-08-19T05:51:33;25.10;65.70
54558;DHT22;40452;50.080;20.040;2022-08-19T05:54:00;25.10;65.60
54558;DHT22;40452;50.080;20.040;2022-08-19T05:56:26;25.10;65.70
54558;DHT22;40452;50.080;20.040;2022-08-19T05:58:52;25.10;65.90
54558;DHT22;40452;50.080;20.040;2022-08-19T06:01:20;25.00;65.90
54558;DHT22;40452;50.080;20.040;2022-08-19T06:03:46;25.10;66.30
54558;DHT22;40452;50.080;20.040;2022-08-19T06:06:14;25.10;66.20
54558;DHT22;40452;50.080;20.040;2022-08-19T06:08:40;25.20;65.80
54558;DHT22;40452;50.080;20.040;2022-08-19T06:11:18;25.20;65.60
54558;DHT22;40452;50.080;20.040;2022-08-19T06:13:44;25.20;65.50
54558;DHT22;40452;50.080;20.040;2022-08-19T06:16:13;25.30;65.50
54558;DHT22;40452;50.080;20.040;2022-08-19T06:18:45;25.30;65.70
54558;DHT22;40452;50.080;20.040;2022-08-19T06:21:11;25.30;65.70
54558;DHT22;40452;50.080;20.040;2022-08-19T06:23:36;25.40;66.30
54558;DHT22;40452;50.080;20.040;2022-08-19T06:26:02;25.40;65.60
54558;DHT22;40452;50.080;20.040;2022-08-19T06:28:27;25.40;65.70
54558;DHT22;40452;50.080;20.040;2022-08-19T06:30:53;25.40;65.80
54558;DHT22;40452;50.080;20.040;2022-08-19T06:33:19;25.40;65.70
54558;DHT22;40452;50.080;20.040;2022-08-19T06:35:44;25.40;65.50
54558;DHT22;40452;50.080;20.040;2022-08-19T06:38:10;25.40;65.70
54558;DHT22;40452;50.080;20.040;2022-08-19T06:40:36;25.40;65.50
54558;DHT22;40452;50.080;20.040;2022-08-19T06:43:03;25.50;65.40
54558;DHT22;40452;50.080;20.040;2022-08-19T06:45:28;25.50;65.50
54558;DHT22;40452;50.080;20.040;2022-08-19T06:47:55;25.50;65.80
54558;DHT22;40452;50.080;20.040;2022-08-19T06:50:22;25.50;65.80
54558;DHT22;40452;50.080;20.040;2022-08-19T06:52:48;25.50;65.90
54558;DHT22;40452;50.080;20.040;2022-08-19T06:55:14;25.60;65.80
54558;DHT22;40452;50.080;20.040;2022-08-19T06:57:41;25.60;67.30
54558;DHT22;40452;50.080;20.040;2022-08-19T07:00:08;25.60;67.10
54558;DHT22;40452;50.080;20.040;2022-08-19T07:02:39;25.60;66.80
54558;DHT22;40452;50.080;20.040;2022-08-19T07:05:06;25.60;66.50
54558;DHT22;40452;50.080;20.040;2022-08-19T07:07:32;25.60;66.40
54558;DHT22;40452;50.080;20.040;2022-08-19T07:09:58;25.60;66.70
54558;DHT22;40452;50.080;20.040;2022-08-19T07:12:24;25.60;66.50
54558;DHT22;40452;50.080;20.040;2022-08-19T07:14:49;25.70;66.60
54558;DHT22;40452;50.080;20.040;2022-08-19T07:17:15;25.60;66.50
54558;DHT22;40452;50.080;20.040;2022-08-19T07:19:41;25.70;66.50
54558;DHT22;40452;50.080;20.040;2022-08-19T07:22:08;25.60;66.30
54558;DHT22;40452;50.080;20.040;2022-08-19T07:24:34;25.70;66.30
54558;DHT22;40452;50.080;20.040;2022-08-19T07:27:02;25.70;66.10
54558;DHT22;40452;50.080;20.040;2022-08-19T07:29:30;25.70;66.20
54558;DHT22;40452;50.080;20.040;2022-08-19T07:31:56;25.70;66.00
54558;DHT22;40452;50.080;20.040;2022-08-19T07:34:24;25.70;65.90
54558;DHT22;40452;50.080;20.040;2022-08-19T07:36:50;25.70;66.00
54558;DHT22;40452;50.080;20.040;2022-08-19T07:39:21;25.70;66.10
54558;DHT22;40452;50.080;20.040;2022-08-19T07:41:47;25.70;66.10
54558;DHT22;40452;50.080;20.040;2022-08-19T07:44:14;25.70;66.10
54558;DHT22;40452;50.080;20.040;2022-08-19T07:46:46;25.80;65.90
54558;DHT22;40452;50.080;20.040;2022-08-19T07:49:14;25.80;66.40
54558;DHT22;40452;50.080;20.040;2022-08-19T07:51:46;25.80;66.10
54558;DHT22;40452;50.080;20.040;2022-08-19T07:54:12;25.80;66.20
54558;DHT22;40452;50.080;20.040;2022-08-19T07:56:38;25.80;66.70
54558;DHT22;40452;50.080;20.040;2022-08-19T07:59:03;25.80;66.60
54558;DHT22;40452;50.080;20.040;2022-08-19T08:01:30;25.80;66.20
54558;DHT22;40452;50.080;20.040;2022-08-19T08:03:57;25.80;66.30
54558;DHT22;40452;50.080;20.040;2022-08-19T08:06:41;25.80;66.10
54558;DHT22;40452;50.080;20.040;2022-08-19T08:09:30;25.80;65.90
54558;DHT22;40452;50.080;20.040;2022-08-19T08:12:09;25.80;66.00
54558;DHT22;40452;50.080;20.040;2022-08-19T08:14:39;25.80;65.90
54558;DHT22;40452;50.080;20.040;2022-08-19T08:17:08;25.80;65.90
54558;DHT22;40452;50.080;20.040;2022-08-19T08:19:34;25.90;66.00
54558;DHT22;40452;50.080;20.040;2022-08-19T08:22:00;25.90;66.70
54558;DHT22;40452;50.080;20.040;2022-08-19T08:24:28;25.90;66.70
54558;DHT22;40452;50.080;20.040;2022-08-19T08:26:54;25.80;66.40
54558;DHT22;40452;50.080;20.040;2022-08-19T08:29:20;25.90;66.90
54558;DHT22;40452;50.080;20.040;2022-08-19T08:31:46;25.90;66.70
54558;DHT22;40452;50.080;20.040;2022-08-19T08:34:13;25.90;66.40
54558;DHT22;40452;50.080;20.040;2022-08-19T08:36:44;25.90;66.30
54558;DHT22;40452;50.080;20.040;2022-08-19T08:39:20;25.90;66.20
54558;DHT22;40452;50.080;20.040;2022-08-19T08:44:22;25.90;66.10
54558;DHT22;40452;50.080;20.040;2022-08-19T08:46:52;25.90;66.10
54558;DHT22;40452;50.080;20.040;2022-08-19T08:49:48;25.90;66.00
54558;DHT22;40452;50.080;20.040;2022-08-19T08:52:27;26.00;66.70
54558;DHT22;40452;50.080;20.040;2022-08-19T08:54:57;26.00;66.80
54558;DHT22;40452;50.080;20.040;2022-08-19T08:57:38;26.00;66.60
54558;DHT22;40452;50.080;20.040;2022-08-19T09:00:09;26.00;66.60
54558;DHT22;40452;50.080;20.040;2022-08-19T09:02:35;26.00;66.40
54558;DHT22;40452;50.080;20.040;2022-08-19T09:05:01;26.00;66.40
54558;DHT22;40452;50.080;20.040;2022-08-19T09:07:41;26.00;67.20
54558;DHT22;40452;50.080;20.040;2022-08-19T09:10:35;26.00;67.80
54558;DHT22;40452;50.080;20.040;2022-08-19T09:13:32;26.00;67.00
54558;DHT22;40452;50.080;20.040;2022-08-19T09:16:06;26.00;66.90
54558;DHT22;40452;50.080;20.040;2022-08-19T09:18:53;26.00;66.90
54558;DHT22;40452;50.080;20.040;2022-08-19T09:21:20;26.00;67.10
54558;DHT22;40452;50.080;20.040;2022-08-19T09:23:48;26.10;67.90
54558;DHT22;40452;50.080;20.040;2022-08-19T09:26:16;26.10;67.80
54558;DHT22;40452;50.080;20.040;2022-08-19T09:28:43;26.10;67.50
54558;DHT22;40452;50.080;20.040;2022-08-19T09:31:14;26.10;67.40
54558;DHT22;40452;50.080;20.040;2022-08-19T09:33:40;26.10;67.20
54558;DHT22;40452;50.080;20.040;2022-08-19T09:36:11;26.10;67.10
54558;DHT22;40452;50.080;20.040;2022-08-19T09:38:37;26.10;67.00
54558;DHT22;40452;50.080;20.040;2022-08-19T09:41:08;26.10;67.20
54558;DHT22;40452;50.080;20.040;2022-08-19T09:43:34;26.10;66.80
54558;DHT22;40452;50.080;20.040;2022-08-19T09:46:03;26.20;67.10
54558;DHT22;40452;50.080;20.040;2022-08-19T09:48:31;26.20;67.40
54558;DHT22;40452;50.080;20.040;2022-08-19T09:51:06;26.20;67.10
54558;DHT22;40452;50.080;20.040;2022-08-19T09:53:34;26.20;66.80
54558;DHT22;40452;50.080;20.040;2022-08-19T09:56:00;26.20;66.80
54558;DHT22;40452;50.080;20.040;2022-08-19T09:58:25;26.20;66.70
54558;DHT22;40452;50.080;20.040;2022-08-19T10:00:54;26.30;66.30
54558;DHT22;40452;50.080;20.040;2022-08-19T10:03:20;26.30;65.80
54558;DHT22;40452;50.080;20.040;2022-08-19T10:05:45;26.30;66.10
54558;DHT22;40452;50.080;20.040;2022-08-19T10:08:15;26.30;66.50
54558;DHT22;40452;50.080;20.040;2022-08-19T10:10:42;26.30;66.30
54558;DHT22;40452;50.080;20.040;2022-08-19T10:13:11;26.30;66.30
54558;DHT22;40452;50.080;20.040;2022-08-19T10:15:37;26.30;66.10
54558;DHT22;40452;50.080;20.040;2022-08-19T10:18:05;26.30;66.40
54558;DHT22;40452;50.080;20.040;2022-08-19T10:20:31;26.30;66.40
54558;DHT22;40452;50.080;20.040;2022-08-19T10:22:56;26.30;66.50
54558;DHT22;40452;50.080;20.040;2022-08-19T10:25:24;26.40;66.20
54558;DHT22;40452;50.080;20.040;2022-08-19T10:27:51;26.40;66.10
54558;DHT22;40452;50.080;20.040;2022-08-19T10:30:17;26.40;66.10
54558;DHT22;40452;50.080;20.040;2022-08-19T10:32:42;26.30;66.00
54558;DHT22;40452;50.080;20.040;2022-08-19T10:35:08;26.30;65.90
54558;DHT22;40452;50.080;20.040;2022-08-19T10:37:36;26.30;65.80
54558;DHT22;40452;50.080;20.040;2022-08-19T10:40:03;26.30;65.70
54558;DHT22;40452;50.080;20.040;2022-08-19T10:42:29;26.30;65.70
54558;DHT22;40452;50.080;20.040;2022-08-19T10:44:56;26.30;65.60
54558;DHT22;40452;50.080;20.040;2022-08-19T10:47:22;26.30;65.70
54558;DHT22;40452;50.080;20.040;2022-08-19T10:49:49;26.30;65.70
54558;DHT22;40452;50.080;20.040;2022-08-19T10:52:33;26.30;65.70
54558;DHT22;40452;50.080;20.040;2022-08-19T10:54:59;26.30;65.60
54558;DHT22;40452;50.080;20.040;2022-08-19T10:57:44;26.30;65.50
54558;DHT22;40452;50.080;20.040;2022-08-19T11:00:10;26.30;65.10
54558;DHT22;40452;50.080;20.040;2022-08-19T11:02:36;26.40;65.40
54558;DHT22;40452;50.080;20.040;2022-08-19T11:05:01;26.30;64.80
54558;DHT22;40452;50.080;20.040;2022-08-19T11:07:27;26.40;64.80
54558;DHT22;40452;50.080;20.040;2022-08-19T11:09:53;26.40;64.90
54558;DHT22;40452;50.080;20.040;2022-08-19T11:12:18;26.40;64.90
54558;DHT22;40452;50.080;20.040;2022-08-19T11:14:44;26.40;65.00
54558;DHT22;40452;50.080;20.040;2022-08-19T11:17:10;26.40;65.00
54558;DHT22;40452;50.080;20.040;2022-08-19T11:19:39;26.40;64.80
54558;DHT22;40452;50.080;20.040;2022-08-19T11:22:08;26.40;65.10
54558;DHT22;40452;50.080;20.040;2022-08-19T11:24:35;26.40;65.10
54558;DHT22;40452;50.080;20.040;2022-08-19T11:27:05;26.50;65.20
54558;DHT22;40452;50.080;20.040;2022-08-19T11:29:31;26.50;64.90
54558;DHT22;40452;50.080;20.040;2022-08-19T11:31:57;26.50;64.70
54558;DHT22;40452;50.080;20.040;2022-08-19T11:34:25;26.50;64.70
54558;DHT22;40452;50.080;20.040;2022-08-19T11:36:52;26.50;64.80
54558;DHT22;40452;50.080;20.040;2022-08-19T11:39:20;26.40;64.90
54558;DHT22;40452;50.080;20.040;2022-08-19T11:41:47;26.40;65.30
54558;DHT22;40452;50.080;20.040;2022-08-19T11:44:12;26.50;64.80
54558;DHT22;40452;50.080;20.040;2022-08-19T11:46:40;26.50;64.50
54558;DHT22;40452;50.080;20.040;2022-08-19T11:49:06;26.50;64.50
54558;DHT22;40452;50.080;20.040;2022-08-19T11:51:33;26.50;64.70
54558;DHT22;40452;50.080;20.040;2022-08-19T11:53:59;26.60;64.30
54558;DHT22;40452;50.080;20.040;2022-08-19T11:56:27;26.60;63.90
54558;DHT22;40452;50.080;20.040;2022-08-19T11:58:53;26.70;63.70
54558;DHT22;40452;50.080;20.040;2022-08-19T12:01:21;26.80;63.00
54558;DHT22;40452;50.080;20.040;2022-08-19T12:03:49;26.80;62.70
54558;DHT22;40452;50.080;20.040;2022-08-19T12:06:18;26.80;62.80
54558;DHT22;40452;50.080;20.040;2022-08-19T12:08:44;26.70;63.00
54558;DHT22;40452;50.080;20.040;2022-08-19T12:11:12;26.70;63.10
54558;DHT22;40452;50.080;20.040;2022-08-19T12:13:38;26.70;63.30
54558;DHT22;40452;50.080;20.040;2022-08-19T12:16:09;26.80;63.40
54558;DHT22;40452;50.080;20.040;2022-08-19T12:18:37;26.80;63.00
54558;DHT22;40452;50.080;20.040;2022-08-19T12:21:02;26.90;62.80
54558;DHT22;40452;50.080;20.040;2022-08-19T12:23:29;26.90;63.00
54558;DHT22;40452;50.080;20.040;2022-08-19T12:25:54;26.90;63.10
54558;DHT22;40452;50.080;20.040;2022-08-19T12:28:24;26.90;63.30
54558;DHT22;40452;50.080;20.040;2022-08-19T12:30:51;26.90;63.10
54558;DHT22;40452;50.080;20.040;2022-08-19T12:33:17;26.90;62.80
54558;DHT22;40452;50.080;20.040;2022-08-19T12:35:44;26.90;62.70
54558;DHT22;40452;50.080;20.040;2022-08-19T12:38:12;26.90;62.50
54558;DHT22;40452;50.080;20.040;2022-08-19T12:40:38;26.90;62.30
54558;DHT22;40452;50.080;20.040;2022-08-19T12:43:06;26.90;62.10
54558;DHT22;40452;50.080;20.040;2022-08-19T12:45:31;26.90;62.30
54558;DHT22;40452;50.080;20.040;2022-08-19T12:47:57;26.90;62.20
54558;DHT22;40452;50.080;20.040;2022-08-19T12:50:23;26.90;62.10
54558;DHT22;40452;50.080;20.040;2022-08-19T12:52:49;26.90;62.30
54558;DHT22;40452;50.080;20.040;2022-08-19T12:55:14;27.00;61.80
54558;DHT22;40452;50.080;20.040;2022-08-19T12:57:40;27.00;62.50
54558;DHT22;40452;50.080;20.040;2022-08-19T13:00:12;27.00;62.00
54558;DHT22;40452;50.080;20.040;2022-08-19T13:02:40;27.00;62.80
54558;DHT22;40452;50.080;20.040;2022-08-19T13:05:08;27.00;62.60
54558;DHT22;40452;50.080;20.040;2022-08-19T13:07:35;27.10;62.20
54558;DHT22;40452;50.080;20.040;2022-08-19T13:10:02;27.10;61.60
54558;DHT22;40452;50.080;20.040;2022-08-19T13:12:28;27.10;61.60
54558;DHT22;40452;50.080;20.040;2022-08-19T13:14:55;27.00;61.60
54558;DHT22;40452;50.080;20.040;2022-08-19T13:17:20;27.00;61.90
54558;DHT22;40452;50.080;20.040;2022-08-19T13:19:46;27.00;62.20
54558;DHT22;40452;50.080;20.040;2022-08-19T13:22:11;27.00;62.20
54558;DHT22;40452;50.080;20.040;2022-08-19T13:24:37;27.00;62.00
54558;DHT22;40452;50.080;20.040;2022-08-19T13:27:03;27.00;62.10
54558;DHT22;40452;50.080;20.040;2022-08-19T13:29:29;27.00;62.40
54558;DHT22;40452;50.080;20.040;2022-08-19T13:32:13;27.00;62.50
54558;DHT22;40452;50.080;20.040;2022-08-19T13:34:57;27.10;60.70
54558;DHT22;40452;50.080;20.040;2022-08-19T13:37:22;27.20;61.00
54558;DHT22;40452;50.080;20.040;2022-08-19T13:40:08;27.10;60.00
54558;DHT22;40452;50.080;20.040;2022-08-19T13:42:37;27.20;59.10
54558;DHT22;40452;50.080;20.040;2022-08-19T13:45:02;27.10;60.00
54558;DHT22;40452;50.080;20.040;2022-08-19T13:47:30;27.10;59.70
54558;DHT22;40452;50.080;20.040;2022-08-19T13:49:55;27.20;59.60
54558;DHT22;40452;50.080;20.040;2022-08-19T13:52:21;27.20;59.30
54558;DHT22;40452;50.080;20.040;2022-08-19T13:54:46;27.20;59.60
54558;DHT22;40452;50.080;20.040;2022-08-19T13:57:13;27.20;60.00
54558;DHT22;40452;50.080;20.040;2022-08-19T13:59:38;27.20;60.00
54558;DHT22;40452;50.080;20.040;2022-08-19T14:02:04;27.20;60.20
54558;DHT22;40452;50.080;20.040;2022-08-19T14:04:31;27.20;59.70
54558;DHT22;40452;50.080;20.040;2022-08-19T14:06:56;27.20;59.20
54558;DHT22;40452;50.080;20.040;2022-08-19T14:09:22;27.30;59.10
54558;DHT22;40452;50.080;20.040;2022-08-19T14:11:47;27.20;58.80
54558;DHT22;40452;50.080;20.040;2022-08-19T14:14:15;27.20;59.40
54558;DHT22;40452;50.080;20.040;2022-08-19T14:16:40;27.30;59.30
54558;DHT22;40452;50.080;20.040;2022-08-19T14:19:06;27.30;59.30
54558;DHT22;40452;50.080;20.040;2022-08-19T14:21:33;27.30;59.80
54558;DHT22;40452;50.080;20.040;2022-08-19T14:23:59;27.30;59.90
54558;DHT22;40452;50.080;20.040;2022-08-19T14:26:25;27.20;60.40
54558;DHT22;40452;50.080;20.040;2022-08-19T14:28:51;27.30;60.80
54558;DHT22;40452;50.080;20.040;2022-08-19T14:31:18;27.20;60.80
54558;DHT22;40452;50.080;20.040;2022-08-19T14:33:48;27.20;60.70
54558;DHT22;40452;50.080;20.040;2022-08-19T14:36:14;27.20;60.50
54558;DHT22;40452;50.080;20.040;2022-08-19T14:38:41;27.30;60.40
54558;DHT22;40452;50.080;20.040;2022-08-19T14:41:18;27.30;59.80
54558;DHT22;40452;50.080;20.040;2022-08-19T14:43:46;27.20;59.60
54558;DHT22;40452;50.080;20.040;2022-08-19T14:46:14;27.30;59.60
54558;DHT22;40452;50.080;20.040;2022-08-19T14:48:41;27.30;60.50
54558;DHT22;40452;50.080;20.040;2022-08-19T14:51:07;27.30;60.90
54558;DHT22;40452;50.080;20.040;2022-08-19T14:53:33;27.30;60.90
54558;DHT22;40452;50.080;20.040;2022-08-19T14:56:01;27.30;61.00
54558;DHT22;40452;50.080;20.040;2022-08-19T14:58:31;27.20;61.30
54558;DHT22;40452;50.080;20.040;2022-08-19T15:00:58;27.30;61.50
54558;DHT22;40452;50.080;20.040;2022-08-19T15:03:24;27.30;61.10
54558;DHT22;40452;50.080;20.040;2022-08-19T15:05:51;27.30;60.80
54558;DHT22;40452;50.080;20.040;2022-08-19T15:08:16;27.30;60.50
54558;DHT22;40452;50.080;20.040;2022-08-19T15:10:42;27.20;60.10
54558;DHT22;40452;50.080;20.040;2022-08-19T15:13:07;27.20;60.00
54558;DHT22;40452;50.080;20.040;2022-08-19T15:15:34;27.20;59.30
54558;DHT22;40452;50.080;20.040;2022-08-19T15:18:00;27.30;58.60
54558;DHT22;40452;50.080;20.040;2022-08-19T15:20:28;27.20;58.20
54558;DHT22;40452;50.080;20.040;2022-08-19T15:22:53;27.20;58.20
54558;DHT22;40452;50.080;20.040;2022-08-19T15:25:19;27.20;59.30
54558;DHT22;40452;50.080;20.040;2022-08-19T15:27:46;27.20;58.20
54558;DHT22;40452;50.080;20.040;2022-08-19T15:30:12;27.20;57.80
54558;DHT22;40452;50.080;20.040;2022-08-19T15:32:42;27.20;57.70
54558;DHT22;40452;50.080;20.040;2022-08-19T15:35:08;27.20;57.90
54558;DHT22;40452;50.080;20.040;2022-08-19T15:37:33;27.20;58.20
54558;DHT22;40452;50.080;20.040;2022-08-19T15:39:59;27.20;58.70
54558;DHT22;40452;50.080;20.040;2022-08-19T15:42:25;27.20;59.10
54558;DHT22;40452;50.080;20.040;2022-08-19T15:44:51;27.20;59.60
54558;DHT22;40452;50.080;20.040;2022-08-19T15:47:17;27.20;59.90
54558;DHT22;40452;50.080;20.040;2022-08-19T15:49:44;27.10;60.00
54558;DHT22;40452;50.080;20.040;2022-08-19T15:52:10;27.20;60.40
54558;DHT22;40452;50.080;20.040;2022-08-19T15:54:35;27.20;60.50
54558;DHT22;40452;50.080;20.040;2022-08-19T15:57:01;27.20;60.60
54558;DHT22;40452;50.080;20.040;2022-08-19T15:59:45;27.20;60.90
54558;DHT22;40452;50.080;20.040;2022-08-19T16:02:29;27.20;61.20
54558;DHT22;40452;50.080;20.040;2022-08-19T16:05:17;27.20;61.30
54558;DHT22;40452;50.080;20.040;2022-08-19T16:08:02;27.20;61.20
54558;DHT22;40452;50.080;20.040;2022-08-19T16:10:28;27.20;60.90
54558;DHT22;40452;50.080;20.040;2022-08-19T16:12:57;27.20;60.90
54558;DHT22;40452;50.080;20.040;2022-08-19T16:15:29;27.20;60.90
54558;DHT22;40452;50.080;20.040;2022-08-19T16:17:56;27.20;61.00
54558;DHT22;40452;50.080;20.040;2022-08-19T16:20:21;27.20;60.90
54558;DHT22;40452;50.080;20.040;2022-08-19T16:22:47;27.20;60.90
54558;DHT22;40452;50.080;20.040;2022-08-19T16:25:13;27.20;61.00
54558;DHT22;40452;50.080;20.040;2022-08-19T16:27:39;27.20;61.00
54558;DHT22;40452;50.080;20.040;2022-08-19T16:30:06;27.20;61.20
54558;DHT22;40452;50.080;20.040;2022-08-19T16:32:32;27.20;61.30
54558;DHT22;40452;50.080;20.040;2022-08-19T16:34:57;27.20;61.40
54558;DHT22;40452;50.080;20.040;2022-08-19T16:37:23;27.20;61.50
54558;DHT22;40452;50.080;20.040;2022-08-19T16:39:49;27.20;61.60
54558;DHT22;40452;50.080;20.040;2022-08-19T16:42:15;27.20;61.50
54558;DHT22;40452;50.080;20.040;2022-08-19T16:44:43;27.20;61.70
54558;DHT22;40452;50.080;20.040;2022-08-19T16:47:10;27.20;61.70
54558;DHT22;40452;50.080;20.040;2022-08-19T16:49:37;27.20;61.60
54558;DHT22;40452;50.080;20.040;2022-08-19T16:52:03;27.20;61.70
54558;DHT22;40452;50.080;20.040;2022-08-19T16:54:30;27.20;61.60
54558;DHT22;40452;50.080;20.040;2022-08-19T16:56:56;27.20;61.60
54558;DHT22;40452;50.080;20.040;2022-08-19T16:59:22;27.20;61.80
54558;DHT22;40452;50.080;20.040;2022-08-19T17:01:48;27.20;62.00
54558;DHT22;40452;50.080;20.040;2022-08-19T17:04:14;27.20;62.10
54558;DHT22;40452;50.080;20.040;2022-08-19T17:06:39;27.10;62.20
54558;DHT22;40452;50.080;20.040;2022-08-19T17:09:07;27.10;62.10
54558;DHT22;40452;50.080;20.040;2022-08-19T17:11:33;27.10;62.20
54558;DHT22;40452;50.080;20.040;2022-08-19T17:14:00;27.10;62.10
54558;DHT22;40452;50.080;20.040;2022-08-19T17:16:28;27.10;62.10
54558;DHT22;40452;50.080;20.040;2022-08-19T17:18:56;27.10;62.20
54558;DHT22;40452;50.080;20.040;2022-08-19T17:21:30;27.10;62.30
54558;DHT22;40452;50.080;20.040;2022-08-19T17:23:58;27.10;62.30
54558;DHT22;40452;50.080;20.040;2022-08-19T17:26:25;27.10;62.20
54558;DHT22;40452;50.080;20.040;2022-08-19T17:28:52;27.10;62.20
54558;DHT22;40452;50.080;20.040;2022-08-19T17:31:20;27.10;62.20
54558;DHT22;40452;50.080;20.040;2022-08-19T17:33:47;27.10;62.10
54558;DHT22;40452;50.080;20.040;2022-08-19T17:36:13;27.10;62.20
54558;DHT22;40452;50.080;20.040;2022-08-19T17:38:38;27.10;62.10
54558;DHT22;40452;50.080;20.040;2022-08-19T17:41:04;27.10;62.10
54558;DHT22;40452;50.080;20.040;2022-08-19T17:43:34;27.10;62.20
54558;DHT22;40452;50.080;20.040;2022-08-19T17:46:00;27.10;62.30
54558;DHT22;40452;50.080;20.040;2022-08-19T17:48:33;27.10;62.80
54558;DHT22;40452;50.080;20.040;2022-08-19T17:53:39;27.20;62.10
54558;DHT22;40452;50.080;20.040;2022-08-19T17:56:05;27.10;62.00
54558;DHT22;40452;50.080;20.040;2022-08-19T17:58:31;27.10;62.00
54558;DHT22;40452;50.080;20.040;2022-08-19T18:00:56;27.10;61.90
54558;DHT22;40452;50.080;20.040;2022-08-19T18:03:25;27.10;62.00
54558;DHT22;40452;50.080;20.040;2022-08-19T18:05:54;27.10;61.80
54558;DHT22;40452;50.080;20.040;2022-08-19T18:08:21;27.20;61.80
54558;DHT22;40452;50.080;20.040;2022-08-19T18:10:48;27.10;61.60
54558;DHT22;40452;50.080;20.040;2022-08-19T18:13:14;27.10;61.60
54558;DHT22;40452;50.080;20.040;2022-08-19T18:15:40;27.10;61.60
54558;DHT22;40452;50.080;20.040;2022-08-19T18:18:06;27.10;61.70
54558;DHT22;40452;50.080;20.040;2022-08-19T18:20:33;27.10;62.40
54558;DHT22;40452;50.080;20.040;2022-08-19T18:22:59;27.10;61.90
54558;DHT22;40452;50.080;20.040;2022-08-19T18:25:26;27.10;61.80
54558;DHT22;40452;50.080;20.040;2022-08-19T18:27:54;27.10;61.80
54558;DHT22;40452;50.080;20.040;2022-08-19T18:30:21;27.10;62.20
54558;DHT22;40452;50.080;20.040;2022-08-19T18:32:51;27.10;61.80
54558;DHT22;40452;50.080;20.040;2022-08-19T18:35:25;27.10;61.90
54558;DHT22;40452;50.080;20.040;2022-08-19T18:37:55;27.10;62.00
54558;DHT22;40452;50.080;20.040;2022-08-19T18:40:22;27.10;62.10
54558;DHT22;40452;50.080;20.040;2022-08-19T18:43:07;27.10;62.20
54558;DHT22;40452;50.080;20.040;2022-08-19T18:45:36;27.10;62.20
54558;DHT22;40452;50.080;20.040;2022-08-19T18:48:20;27.10;62.30
54558;DHT22;40452;50.080;20.040;2022-08-19T18:51:05;27.10;62.40
54558;DHT22;40452;50.080;20.040;2022-08-19T18:53:33;27.00;62.40
54558;DHT22;40452;50.080;20.040;2022-08-19T18:56:00;27.00;62.30
54558;DHT22;40452;50.080;20.040;2022-08-19T18:58:28;27.00;62.20
54558;DHT22;40452;50.080;20.040;2022-08-19T19:01:02;27.00;62.50
54558;DHT22;40452;50.080;20.040;2022-08-19T19:03:33;27.00;62.50
54558;DHT22;40452;50.080;20.040;2022-08-19T19:05:58;27.00;62.60
54558;DHT22;40452;50.080;20.040;2022-08-19T19:08:24;27.00;62.50
54558;DHT22;40452;50.080;20.040;2022-08-19T19:10:49;27.00;62.40
54558;DHT22;40452;50.080;20.040;2022-08-19T19:13:15;27.00;62.60
54558;DHT22;40452;50.080;20.040;2022-08-19T19:15:42;27.00;62.50
54558;DHT22;40452;50.080;20.040;2022-08-19T19:18:09;27.00;62.30
54558;DHT22;40452;50.080;20.040;2022-08-19T19:20:40;27.00;62.20
54558;DHT22;40452;50.080;20.040;2022-08-19T19:23:06;27.00;62.10
54558;DHT22;40452;50.080;20.040;2022-08-19T19:25:32;27.00;62.00
54558;DHT22;40452;50.080;20.040;2022-08-19T19:27:59;27.00;62.10
54558;DHT22;40452;50.080;20.040;2022-08-19T19:30:24;27.00;62.00
54558;DHT22;40452;50.080;20.040;2022-08-19T19:32:50;27.00;62.10
54558;DHT22;40452;50.080;20.040;2022-08-19T19:35:18;27.00;62.40
54558;DHT22;40452;50.080;20.040;2022-08-19T19:37:44;27.00;62.50
54558;DHT22;40452;50.080;20.040;2022-08-19T19:40:16;27.00;62.70
54558;DHT22;40452;50.080;20.040;2022-08-19T19:42:41;27.00;62.70
54558;DHT22;40452;50.080;20.040;2022-08-19T19:45:07;27.00;63.00
54558;DHT22;40452;50.080;20.040;2022-08-19T19:47:33;27.00;62.90
54558;DHT22;40452;50.080;20.040;2022-08-19T19:49:58;27.00;62.90
54558;DHT22;40452;50.080;20.040;2022-08-19T19:52:24;27.00;63.10
54558;DHT22;40452;50.080;20.040;2022-08-19T19:54:50;27.00;63.20
54558;DHT22;40452;50.080;20.040;2022-08-19T19:57:16;27.00;63.30
54558;DHT22;40452;50.080;20.040;2022-08-19T19:59:42;26.90;63.60
54558;DHT22;40452;50.080;20.040;2022-08-19T20:02:08;27.00;63.80
54558;DHT22;40452;50.080;20.040;2022-08-19T20:04:35;26.90;63.90
54558;DHT22;40452;50.080;20.040;2022-08-19T20:07:01;26.90;63.90
54558;DHT22;40452;50.080;20.040;2022-08-19T20:09:27;26.90;64.10